Time;durP1;ratioP1;P1;durP2;ratioP2;P2;SDS_P1;SDS_P2;PMS_P1;PMS_P2;Temp;Humidity;BMP_temperature;BMP_pressure;BME280_temperature;BME280_humidity;BME280_pressure;Samples;Min_cycle;Max_cycle;Signal;HPM_P1;HPM_P2
2022/01/03 00:01:08;;;;;;;11.20;10.70;;;13.00;99.90;;;;;;4915544;29;21152;-72
2022/01/03 00:03:36;;;;;;;11.73;11.17;;;13.00;99.90;;;;;;4915808;29;20458;-72
2022/01/03 00:06:04;;;;;;;11.50;10.90;;;12.90;99.90;;;;;;4914942;29;20953;-72
2022/01/03 00:08:31;;;;;;;10.80;10.30;;;13.00;99.90;;;;;;4915540;29;20446;-72
2022/01/03 00:10:57;;;;;;;12.27;11.33;;;13.00;99.90;;;;;;4915577;29;20513;-72
2022/01/03 00:13:25;;;;;;;11.10;10.60;;;13.10;99.90;;;;;;4915228;29;21012;-72
2022/01/03 00:15:55;;;;;;;11.17;10.50;;;13.00;99.90;;;;;;4915362;29;20490;-72
2022/01/03 00:18:22;;;;;;;11.60;10.90;;;13.00;99.90;;;;;;4915632;29;20458;-73
2022/01/03 00:20:56;;;;;;;11.90;11.00;;;13.00;99.90;;;;;;4915298;29;20821;-72
2022/01/03 00:23:26;;;;;;;11.37;10.70;;;13.10;99.90;;;;;;4915268;29;20545;-73
2022/01/03 00:25:58;;;;;;;11.73;11.13;;;13.30;99.90;;;;;;4915319;29;20558;-73
2022/01/03 00:28:29;;;;;;;11.60;11.00;;;13.40;99.90;;;;;;4915490;29;20463;-72
2022/01/03 00:30:58;;;;;;;11.83;11.23;;;13.30;99.90;;;;;;4915324;29;20485;-72
2022/01/03 00:33:25;;;;;;;11.60;11.10;;;13.20;99.90;;;;;;4915198;29;20497;-71
2022/01/03 00:35:58;;;;;;;11.90;10.97;;;13.30;99.90;;;;;;4915029;29;20860;-72
2022/01/03 00:38:27;;;;;;;11.97;11.17;;;13.20;99.90;;;;;;4915173;29;20460;-73
2022/01/03 00:40:54;;;;;;;11.00;10.50;;;13.20;99.90;;;;;;4915093;29;20497;-72
2022/01/03 00:43:21;;;;;;;10.97;10.47;;;13.20;99.90;;;;;;4914719;29;20505;-73
2022/01/03 00:45:51;;;;;;;11.47;10.77;;;13.20;99.90;;;;;;4914844;29;20458;-73
2022/01/03 00:48:17;;;;;;;11.73;11.13;;;13.20;99.90;;;;;;4914787;29;20461;-73
2022/01/03 00:50:44;;;;;;;11.27;10.77;;;13.20;99.90;;;;;;4915131;29;20473;-73
2022/01/03 00:53:12;;;;;;;11.83;10.97;;;13.20;99.90;;;;;;4914604;29;20457;-72
2022/01/03 00:55:51;;;;;;;11.83;10.93;;;13.30;99.90;;;;;;4914806;29;20462;-73
2022/01/03 00:58:20;;;;;;;10.77;10.33;;;13.30;99.90;;;;;;4914524;29;20509;-72
2022/01/03 01:00:51;;;;;;;11.50;10.90;;;13.30;99.90;;;;;;4914648;29;20725;-73
2022/01/03 01:03:21;;;;;;;11.37;10.87;;;13.30;99.90;;;;;;4914642;29;20458;-73
2022/01/03 01:05:50;;;;;;;11.30;10.63;;;13.40;99.90;;;;;;4914158;29;20458;-73
2022/01/03 01:08:20;;;;;;;11.13;10.70;;;13.40;99.90;;;;;;4914333;29;20883;-73
2022/01/03 01:10:50;;;;;;;11.50;10.80;;;13.40;99.90;;;;;;4914602;29;20498;-73
2022/01/03 01:13:17;;;;;;;11.37;10.67;;;13.30;99.90;;;;;;4914016;29;20486;-72
2022/01/03 01:15:44;;;;;;;11.70;10.90;;;13.30;99.90;;;;;;4914124;29;20541;-72
2022/01/03 01:18:11;;;;;;;10.93;10.53;;;13.30;99.90;;;;;;4914280;29;20953;-72
2022/01/03 01:20:39;;;;;;;10.37;9.93;;;13.30;99.90;;;;;;4914504;29;20481;-73
2022/01/03 01:23:07;;;;;;;11.70;11.00;;;13.30;99.90;;;;;;4914429;29;20486;-72
2022/01/03 01:28:19;;;;;;;10.93;10.33;;;13.30;99.90;;;;;;4914320;29;20960;-73
2022/01/03 01:30:49;;;;;;;12.50;11.33;;;13.30;99.90;;;;;;4914235;29;20513;-73
2022/01/03 01:33:17;;;;;;;11.20;10.70;;;13.30;99.90;;;;;;4913874;29;20454;-73
2022/01/03 01:35:47;;;;;;;11.63;10.93;;;13.30;99.90;;;;;;4913990;29;20841;-73
2022/01/03 01:38:15;;;;;;;13.77;13.03;;;13.30;99.90;;;;;;4914077;29;20798;-73
2022/01/03 01:40:46;;;;;;;11.00;10.50;;;13.20;99.90;;;;;;4912259;29;20541;-72
2022/01/03 01:43:17;;;;;;;11.30;10.60;;;13.20;99.90;;;;;;4914089;29;20454;-71
2022/01/03 01:45:49;;;;;;;10.97;10.40;;;13.30;99.90;;;;;;4913882;29;20465;-71
2022/01/03 01:48:17;;;;;;;11.30;10.70;;;13.20;99.90;;;;;;4914069;29;20465;-71
2022/01/03 01:50:46;;;;;;;11.57;11.17;;;13.20;99.90;;;;;;4913843;29;20450;-71
2022/01/03 01:53:20;;;;;;;11.07;10.57;;;13.20;99.90;;;;;;4913863;29;20502;-71
2022/01/03 01:55:51;;;;;;;11.37;10.57;;;13.30;99.90;;;;;;4913850;29;20453;-72
2022/01/03 01:58:29;;;;;;;11.30;10.60;;;13.30;99.90;;;;;;4913817;29;20454;-71
2022/01/03 02:00:58;;;;;;;11.53;10.90;;;13.30;99.90;;;;;;4913801;29;20505;-71
2022/01/03 02:03:48;;;;;;;11.33;10.83;;;13.20;99.90;;;;;;4913987;29;20518;-72
2022/01/03 02:06:28;;;;;;;11.67;10.97;;;13.20;99.90;;;;;;4913796;29;20542;-72
2022/01/03 02:09:04;;;;;;;12.03;11.33;;;13.20;99.90;;;;;;4913936;29;20462;-72
2022/01/03 02:11:48;;;;;;;11.77;11.10;;;13.20;99.90;;;;;;4913563;29;20450;-72
2022/01/03 02:14:15;;;;;;;11.97;11.10;;;13.20;99.90;;;;;;4913541;29;20504;-72
2022/01/03 02:16:42;;;;;;;11.40;10.70;;;13.20;99.90;;;;;;4913824;29;20864;-72
2022/01/03 02:19:09;;;;;;;11.03;10.60;;;13.20;99.90;;;;;;4913839;29;20462;-72
2022/01/03 02:21:37;;;;;;;11.50;11.00;;;13.10;99.90;;;;;;4913602;29;20486;-72
2022/01/03 02:24:05;;;;;;;11.57;10.87;;;13.10;99.90;;;;;;4913405;29;20510;-71
2022/01/03 02:26:32;;;;;;;11.40;10.80;;;13.10;99.90;;;;;;4913454;29;20509;-72
2022/01/03 02:28:59;;;;;;;11.07;10.50;;;13.10;99.90;;;;;;4898471;29;20871;-72
2022/01/03 02:31:27;;;;;;;11.40;10.90;;;13.20;99.90;;;;;;4898795;29;20549;-71
2022/01/03 02:33:53;;;;;;;12.50;11.77;;;13.10;99.90;;;;;;4898665;29;20526;-72
2022/01/03 02:36:21;;;;;;;11.40;10.90;;;13.10;99.90;;;;;;4898419;29;20459;-71
2022/01/03 02:38:49;;;;;;;11.77;11.17;;;13.10;99.90;;;;;;4898433;29;20463;-72
2022/01/03 02:41:15;;;;;;;11.50;11.10;;;13.10;99.90;;;;;;4898120;29;20454;-72
2022/01/03 02:43:42;;;;;;;11.03;10.43;;;13.20;99.90;;;;;;4898182;29;20459;-72
2022/01/03 02:46:09;;;;;;;12.10;11.40;;;13.10;99.90;;;;;;4898294;29;20518;-72
2022/01/03 02:48:36;;;;;;;11.37;10.87;;;13.00;99.90;;;;;;4897835;29;20939;-72
2022/01/03 02:51:03;;;;;;;11.97;11.30;;;13.00;99.90;;;;;;4897829;29;20550;-72
2022/01/03 02:53:30;;;;;;;11.00;10.60;;;13.00;99.90;;;;;;4897749;29;20459;-73
2022/01/03 02:55:58;;;;;;;11.70;11.20;;;13.00;99.90;;;;;;4897710;29;20901;-72
2022/01/03 02:58:25;;;;;;;11.10;10.60;;;13.00;99.90;;;;;;4898171;29;20463;-71
2022/01/03 03:00:52;;;;;;;12.97;12.07;;;13.00;99.90;;;;;;4897849;29;20455;-71
2022/01/03 03:03:21;;;;;;;11.10;10.40;;;13.00;99.90;;;;;;4897276;29;21006;-72
2022/01/03 03:05:47;;;;;;;11.73;11.00;;;13.00;99.90;;;;;;4897656;29;20950;-71
2022/01/03 03:08:16;;;;;;;11.80;11.00;;;13.00;99.90;;;;;;4897630;29;20459;-72
2022/01/03 03:10:43;;;;;;;11.33;10.77;;;13.00;99.90;;;;;;4897478;29;20946;-79
2022/01/03 03:13:11;;;;;;;12.70;11.53;;;12.90;99.90;;;;;;4897630;29;20475;-72
2022/01/03 03:15:38;;;;;;;11.07;10.60;;;12.80;99.90;;;;;;4897537;29;20502;-72
2022/01/03 03:18:05;;;;;;;12.40;11.37;;;12.80;99.90;;;;;;4897242;29;20821;-73
2022/01/03 03:20:34;;;;;;;11.93;11.30;;;12.70;99.90;;;;;;4897399;29;20522;-72
2022/01/03 03:23:01;;;;;;;11.60;11.10;;;12.60;99.90;;;;;;4897229;29;20801;-72
2022/01/03 03:25:30;;;;;;;12.20;11.53;;;12.40;99.90;;;;;;4903623;29;20444;-72
2022/01/03 03:27:58;;;;;;;11.20;10.70;;;12.30;99.90;;;;;;4904592;29;20507;-71
2022/01/03 03:30:28;;;;;;;12.47;11.87;;;12.30;99.90;;;;;;4900696;29;20823;-71
2022/01/03 03:32:57;;;;;;;11.73;11.00;;;12.20;99.90;;;;;;4896542;29;20871;-71
2022/01/03 03:35:24;;;;;;;12.73;11.90;;;12.20;99.90;;;;;;4896551;29;20502;-71
2022/01/03 03:37:51;;;;;;;11.93;11.33;;;12.10;99.90;;;;;;4896953;29;20538;-71
2022/01/03 03:40:18;;;;;;;12.13;11.43;;;12.20;99.90;;;;;;4895578;29;20455;-71
2022/01/03 03:42:46;;;;;;;11.53;10.93;;;12.30;99.90;;;;;;4898867;29;20451;-72
2022/01/03 03:45:13;;;;;;;11.90;11.23;;;12.30;99.90;;;;;;4904228;29;20547;-71
2022/01/03 03:47:42;;;;;;;12.73;12.23;;;12.30;99.90;;;;;;4905317;29;20460;-71
2022/01/03 03:50:10;;;;;;;12.50;11.90;;;12.30;99.90;;;;;;4914811;29;20457;-72
2022/01/03 03:52:36;;;;;;;12.47;11.67;;;12.10;99.90;;;;;;4915971;29;20457;-72
2022/01/03 03:55:05;;;;;;;12.10;11.40;;;12.00;99.90;;;;;;4915458;29;20489;-72
2022/01/03 03:57:31;;;;;;;11.73;11.13;;;12.00;99.90;;;;;;4915520;29;20539;-73
2022/01/03 03:59:58;;;;;;;11.43;10.67;;;11.90;99.90;;;;;;4909433;29;20455;-72
2022/01/03 04:02:25;;;;;;;11.77;11.17;;;12.10;99.90;;;;;;4905229;29;20458;-72
2022/01/03 04:04:53;;;;;;;12.17;11.40;;;12.00;99.90;;;;;;4906043;29;20864;-73
2022/01/03 04:07:20;;;;;;;12.10;11.27;;;11.90;99.90;;;;;;4904581;29;20443;-73
2022/01/03 04:09:46;;;;;;;12.23;11.57;;;11.80;99.90;;;;;;4904439;29;20449;-73
2022/01/03 04:12:13;;;;;;;11.97;10.83;;;11.70;99.90;;;;;;4895756;29;20463;-72
2022/01/03 04:14:40;;;;;;;11.67;11.17;;;11.70;99.90;;;;;;4895787;29;20522;-71
2022/01/03 04:17:06;;;;;;;11.90;11.27;;;11.70;99.90;;;;;;4896026;29;20459;-71
2022/01/03 04:19:33;;;;;;;11.40;10.80;;;11.60;99.90;;;;;;4895626;29;20520;-71
2022/01/03 04:22:01;;;;;;;12.00;11.07;;;11.70;99.90;;;;;;4896600;29;20537;-71
2022/01/03 04:24:28;;;;;;;11.73;11.13;;;11.60;99.90;;;;;;4896667;29;20874;-71
2022/01/03 04:26:55;;;;;;;12.27;11.47;;;11.60;99.90;;;;;;4896647;29;20493;-71
2022/01/03 04:29:22;;;;;;;12.40;11.50;;;11.60;99.90;;;;;;4896287;29;20882;-71
2022/01/03 04:31:49;;;;;;;12.37;11.60;;;11.60;99.90;;;;;;4896622;29;20462;-71
2022/01/03 04:34:15;;;;;;;13.70;12.63;;;11.60;99.90;;;;;;4896071;29;20680;-71
2022/01/03 04:36:42;;;;;;;12.33;11.43;;;11.50;99.90;;;;;;4896165;29;20459;-72
2022/01/03 04:39:10;;;;;;;11.70;11.00;;;11.50;99.90;;;;;;4896418;29;20462;-71
2022/01/03 04:41:37;;;;;;;11.80;10.90;;;11.50;99.90;;;;;;4896232;29;20462;-72
2022/01/03 04:44:05;;;;;;;11.37;10.70;;;11.60;99.90;;;;;;4896123;29;20467;-71
2022/01/03 04:46:33;;;;;;;11.10;10.50;;;11.70;99.90;;;;;;4895962;29;20497;-71
2022/01/03 04:49:00;;;;;;;11.50;11.00;;;11.80;99.90;;;;;;4895951;29;20538;-72
2022/01/03 04:51:27;;;;;;;12.53;11.83;;;11.90;99.90;;;;;;4895579;29;20876;-72
2022/01/03 04:53:53;;;;;;;12.00;11.30;;;11.80;99.90;;;;;;4895929;29;20935;-72
2022/01/03 04:56:21;;;;;;;13.83;12.90;;;11.70;99.90;;;;;;4895466;29;21088;-72
2022/01/03 04:58:48;;;;;;;14.77;13.87;;;11.60;99.90;;;;;;4895590;29;20464;-72
2022/01/03 05:01:15;;;;;;;16.27;15.57;;;11.50;99.90;;;;;;4895671;29;20455;-71
2022/01/03 05:03:41;;;;;;;17.20;16.33;;;11.40;99.90;;;;;;4895129;29;20467;-71
2022/01/03 05:06:08;;;;;;;21.67;20.27;;;11.40;99.90;;;;;;4895309;29;20873;-71
2022/01/03 05:08:35;;;;;;;22.80;21.50;;;11.30;99.90;;;;;;4895292;29;20459;-72
2022/01/03 05:11:02;;;;;;;22.60;21.30;;;11.20;99.90;;;;;;4895201;29;20463;-72
2022/01/03 05:13:31;;;;;;;22.70;21.70;;;11.10;99.90;;;;;;4894943;29;20602;-73
2022/01/03 05:15:58;;;;;;;24.37;22.97;;;10.90;99.90;;;;;;4895090;29;20527;-73
2022/01/03 05:18:24;;;;;;;26.00;24.50;;;10.80;99.90;;;;;;4895541;29;20511;-72
2022/01/03 05:20:51;;;;;;;26.10;24.53;;;10.70;99.90;;;;;;4895110;29;20859;-72
2022/01/03 05:23:18;;;;;;;25.20;23.60;;;10.60;99.90;;;;;;4895382;29;20463;-72
2022/01/03 05:25:45;;;;;;;25.63;24.20;;;10.50;99.90;;;;;;4894743;29;20455;-72
2022/01/03 05:28:12;;;;;;;25.77;24.23;;;10.50;99.90;;;;;;4895092;29;20471;-71
2022/01/03 05:30:40;;;;;;;25.47;24.00;;;10.50;99.90;;;;;;4895078;29;20926;-71
2022/01/03 05:33:07;;;;;;;25.30;23.90;;;10.40;99.90;;;;;;4895559;29;20514;-71
2022/01/03 05:35:34;;;;;;;24.50;23.10;;;10.30;99.90;;;;;;4894864;29;20498;-72
2022/01/03 05:38:01;;;;;;;26.90;25.27;;;10.40;99.90;;;;;;4894707;29;20464;-72
2022/01/03 05:40:28;;;;;;;25.10;23.97;;;10.40;99.90;;;;;;4894702;29;20511;-71
2022/01/03 05:42:55;;;;;;;25.43;24.20;;;10.50;99.90;;;;;;4894952;29;20946;-71
2022/01/03 05:45:22;;;;;;;25.43;23.83;;;10.40;99.90;;;;;;4895069;29;20459;-71
2022/01/03 05:47:51;;;;;;;24.00;22.80;;;10.30;99.90;;;;;;4894884;29;20959;-71
2022/01/03 05:50:18;;;;;;;25.50;23.90;;;10.30;99.90;;;;;;4894518;29;20800;-71
2022/01/03 05:52:45;;;;;;;25.30;23.70;;;10.40;99.90;;;;;;4894752;29;20809;-71
2022/01/03 05:55:12;;;;;;;24.23;23.00;;;10.30;99.90;;;;;;4894623;29;20498;-71
2022/01/03 05:57:40;;;;;;;24.90;23.30;;;10.30;99.90;;;;;;4894279;29;20466;-72
2022/01/03 06:00:08;;;;;;;25.37;23.53;;;10.20;99.90;;;;;;4894472;29;20542;-71
2022/01/03 06:02:40;;;;;;;24.37;23.00;;;10.30;99.90;;;;;;4894023;29;20996;-71
2022/01/03 06:05:11;;;;;;;25.07;23.40;;;10.30;99.90;;;;;;4894869;29;20461;-72
2022/01/03 06:07:37;;;;;;;24.93;23.53;;;10.40;99.90;;;;;;4894709;29;20460;-72
2022/01/03 06:10:09;;;;;;;24.80;23.40;;;10.30;99.90;;;;;;4894473;29;20932;-71
2022/01/03 06:12:35;;;;;;;24.40;23.10;;;10.20;99.90;;;;;;4894466;29;20471;-74
2022/01/03 12:58:37;;;;;;;10.93;10.27;;;13.90;99.90;;;;;;6163080;22;1889943;-70
2022/01/03 13:01:10;;;;;;;11.23;10.63;;;13.80;99.90;;;;;;6247508;23;20173;-70
2022/01/03 13:03:43;;;;;;;11.07;10.67;;;13.90;99.90;;;;;;6249438;23;20445;-71
2022/01/03 13:06:10;;;;;;;12.50;11.90;;;13.90;99.90;;;;;;6249816;23;20387;-71
2022/01/03 13:08:39;;;;;;;11.83;11.13;;;13.90;99.90;;;;;;6250210;23;20453;-70
2022/01/03 13:11:08;;;;;;;11.27;10.67;;;13.80;99.90;;;;;;6249995;23;20407;-71
2022/01/03 13:13:37;;;;;;;12.83;12.10;;;14.00;99.90;;;;;;6250530;23;20403;-71
2022/01/03 13:16:17;;;;;;;11.67;10.87;;;14.00;99.90;;;;;;6250421;23;20457;-71
2022/01/03 13:18:45;;;;;;;11.10;10.60;;;14.00;99.90;;;;;;6250400;23;20451;-72
2022/01/03 13:21:14;;;;;;;11.50;10.90;;;14.10;99.90;;;;;;6249959;23;20407;-72
2022/01/03 13:23:52;;;;;;;11.60;10.90;;;14.10;99.90;;;;;;6250354;23;20457;-72
2022/01/03 13:26:20;;;;;;;12.40;11.60;;;14.20;99.90;;;;;;6250596;23;20427;-72
2022/01/03 13:28:49;;;;;;;12.00;11.50;;;14.10;99.90;;;;;;6248460;23;20744;-71
2022/01/03 13:31:16;;;;;;;11.83;11.00;;;14.10;99.90;;;;;;6242806;23;20407;-68
2022/01/03 13:33:43;;;;;;;12.10;11.30;;;14.00;99.90;;;;;;6242883;23;20737;-71
2022/01/03 13:36:15;;;;;;;12.40;11.70;;;14.00;99.90;;;;;;6243813;23;20411;-71
2022/01/03 13:38:42;;;;;;;12.40;11.50;;;14.10;99.90;;;;;;6243583;23;20430;-71
2022/01/03 13:41:13;;;;;;;11.57;10.77;;;14.00;99.90;;;;;;6243919;23;20777;-72
2022/01/03 13:43:43;;;;;;;12.20;11.50;;;14.00;99.90;;;;;;6243365;23;20407;-71
2022/01/03 13:49:13;;;;;;;11.77;10.90;;;13.80;99.90;;;;;;6150195;23;20394;-71
2022/01/03 13:51:45;;;;;;;10.97;10.50;;;13.60;99.90;;;;;;6223324;23;20410;-72
2022/01/03 13:54:23;;;;;;;11.27;10.67;;;13.80;99.90;;;;;;6243233;23;20422;-71
2022/01/03 13:56:50;;;;;;;11.33;10.70;;;13.80;99.90;;;;;;6229493;23;20986;-71
2022/01/03 13:59:17;;;;;;;11.43;10.90;;;13.70;99.90;;;;;;6212357;23;20566;-71
2022/01/03 14:01:47;;;;;;;11.53;10.90;;;13.80;99.90;;;;;;6212702;23;20437;-71
2022/01/03 14:04:14;;;;;;;13.33;12.43;;;13.70;99.90;;;;;;6212736;23;20441;-71
2022/01/03 14:06:41;;;;;;;11.20;10.70;;;13.70;99.90;;;;;;6212868;23;20413;-71
2022/01/03 14:09:15;;;;;;;10.70;10.20;;;13.70;99.90;;;;;;6213064;23;20460;-71
2022/01/03 14:11:43;;;;;;;11.70;11.00;;;13.60;99.90;;;;;;6212750;23;20408;-71
2022/01/03 14:14:10;;;;;;;11.10;10.47;;;13.60;99.90;;;;;;6213157;23;20409;-71
2022/01/03 14:16:56;;;;;;;10.57;10.07;;;13.50;99.90;;;;;;6212941;23;20408;-71
2022/01/03 14:19:27;;;;;;;11.33;10.60;;;13.60;99.90;;;;;;6212724;23;20966;-71
2022/01/03 14:21:55;;;;;;;10.27;9.90;;;13.50;99.90;;;;;;6212980;23;20397;-71
2022/01/03 14:24:24;;;;;;;11.30;10.80;;;13.50;99.90;;;;;;6212657;23;20404;-72
2022/01/03 14:26:56;;;;;;;11.63;11.03;;;13.40;99.90;;;;;;6212853;23;20419;-72
2022/01/03 14:29:23;;;;;;;12.03;11.20;;;13.40;99.90;;;;;;6212847;23;20780;-72
2022/01/03 14:31:53;;;;;;;11.83;11.10;;;13.40;99.90;;;;;;6212714;23;20847;-71
2022/01/03 14:34:27;;;;;;;12.20;11.40;;;13.40;99.90;;;;;;6212450;23;20625;-72
2022/01/03 14:36:55;;;;;;;11.80;11.00;;;13.40;99.90;;;;;;6212861;23;20403;-72
2022/01/03 14:39:22;;;;;;;11.20;10.60;;;13.40;99.90;;;;;;6212751;23;20822;-70
2022/01/03 14:41:59;;;;;;;10.63;10.13;;;13.40;99.90;;;;;;6211936;23;20408;-71
2022/01/03 14:44:27;;;;;;;10.90;10.20;;;13.40;99.90;;;;;;6212410;23;20428;-71
2022/01/03 14:47:03;;;;;;;11.17;10.40;;;13.40;99.90;;;;;;6212371;23;20417;-71
2022/01/03 14:49:32;;;;;;;11.60;10.97;;;13.40;99.90;;;;;;6212123;23;20392;-71
2022/01/03 14:51:59;;;;;;;11.40;10.57;;;13.40;99.90;;;;;;6211984;23;20900;-71
2022/01/03 14:54:29;;;;;;;11.33;10.70;;;13.30;99.90;;;;;;6212088;23;20463;-75
2022/01/03 14:56:56;;;;;;;11.60;10.90;;;13.30;99.90;;;;;;6212651;23;20591;-71
2022/01/03 14:59:27;;;;;;;11.00;10.40;;;13.40;99.90;;;;;;6212263;23;20520;-70
2022/01/03 15:01:56;;;;;;;11.10;10.60;;;13.40;99.90;;;;;;6212536;23;20397;-71
2022/01/03 15:04:24;;;;;;;12.27;11.50;;;13.30;99.90;;;;;;6212693;23;20415;-71
2022/01/03 15:06:52;;;;;;;11.00;10.40;;;13.30;99.90;;;;;;6212632;23;20424;-71
2022/01/03 15:09:19;;;;;;;10.83;10.30;;;13.30;99.90;;;;;;6212273;23;20463;-71
2022/01/03 15:11:46;;;;;;;11.13;10.63;;;13.20;99.90;;;;;;6211528;23;20531;-72
2022/01/03 15:14:13;;;;;;;11.00;10.30;;;13.20;99.90;;;;;;6211839;23;20416;-72
2022/01/03 15:16:39;;;;;;;12.00;11.10;;;13.20;99.90;;;;;;6212160;23;20409;-71
2022/01/03 15:19:07;;;;;;;10.80;10.30;;;13.10;99.90;;;;;;6212472;23;20777;-72
2022/01/03 15:21:33;;;;;;;11.00;10.30;;;13.10;99.90;;;;;;6212025;23;20712;-72
2022/01/03 15:24:01;;;;;;;11.20;10.80;;;13.10;99.90;;;;;;6211944;23;20428;-72
2022/01/03 15:26:28;;;;;;;11.57;10.90;;;13.00;99.90;;;;;;6212014;23;20742;-72
2022/01/03 15:28:56;;;;;;;11.43;10.73;;;13.00;99.90;;;;;;6212193;23;20778;-72
2022/01/03 15:31:22;;;;;;;11.70;10.90;;;13.00;99.90;;;;;;6212419;23;20471;-72
2022/01/03 15:33:49;;;;;;;11.10;10.50;;;12.90;99.90;;;;;;6211916;23;20455;-72
2022/01/03 15:36:15;;;;;;;11.23;10.73;;;12.90;99.90;;;;;;6212226;23;20459;-72
2022/01/03 15:38:42;;;;;;;12.03;11.33;;;12.90;99.90;;;;;;6211544;23;20436;-72
2022/01/03 15:41:10;;;;;;;11.37;10.80;;;12.80;99.90;;;;;;6212403;23;20412;-72
2022/01/03 15:43:37;;;;;;;10.70;10.27;;;12.90;99.90;;;;;;6211750;23;20742;-72
2022/01/03 15:46:03;;;;;;;11.50;10.80;;;12.90;99.90;;;;;;6212273;23;20408;-72
2022/01/03 15:48:30;;;;;;;11.63;11.03;;;12.80;99.90;;;;;;6211627;23;20446;-72
2022/01/03 15:50:59;;;;;;;10.93;10.53;;;12.80;99.90;;;;;;6212062;23;20409;-72
2022/01/03 15:53:27;;;;;;;11.57;11.17;;;12.80;99.90;;;;;;6212152;23;20413;-71
2022/01/03 15:55:54;;;;;;;12.07;11.20;;;12.80;99.90;;;;;;6212483;23;20412;-71
2022/01/03 15:58:22;;;;;;;11.40;10.80;;;12.80;99.90;;;;;;6211680;23;20555;-71
2022/01/03 16:00:50;;;;;;;10.10;9.60;;;12.80;99.90;;;;;;6208883;23;20416;-71
2022/01/03 16:03:17;;;;;;;10.80;10.30;;;12.80;99.90;;;;;;6211391;23;20420;-71
2022/01/03 16:05:44;;;;;;;10.40;9.80;;;12.80;99.90;;;;;;6211792;23;20900;-72
2022/01/03 16:08:11;;;;;;;11.93;11.03;;;12.70;99.90;;;;;;6212061;23;20785;-71
2022/01/03 16:10:38;;;;;;;11.47;10.90;;;12.70;99.90;;;;;;6212095;23;20405;-70
2022/01/03 16:13:04;;;;;;;10.33;9.60;;;12.60;99.90;;;;;;6211432;23;20439;-71
2022/01/03 16:15:32;;;;;;;10.90;10.40;;;12.60;99.90;;;;;;6208422;23;20471;-74
2022/01/03 16:17:59;;;;;;;11.30;10.70;;;12.60;99.90;;;;;;6209728;23;20405;-72
2022/01/03 16:20:26;;;;;;;9.93;9.23;;;12.60;99.90;;;;;;6212196;23;20412;-71
2022/01/03 16:22:53;;;;;;;9.07;8.77;;;12.50;99.90;;;;;;6211593;23;20417;-71
2022/01/03 16:25:19;;;;;;;9.83;9.33;;;12.40;99.90;;;;;;6211839;23;20409;-72
2022/01/03 16:27:46;;;;;;;10.07;9.60;;;12.40;99.90;;;;;;6208786;23;20483;-73
2022/01/03 16:30:15;;;;;;;9.20;8.90;;;12.50;99.90;;;;;;6211175;23;20742;-72
2022/01/03 16:32:44;;;;;;;10.97;10.47;;;12.40;99.90;;;;;;6211027;23;20895;-72
2022/01/03 16:35:11;;;;;;;10.37;9.77;;;12.50;99.90;;;;;;6211468;23;20409;-71
2022/01/03 16:37:39;;;;;;;10.77;10.17;;;12.40;99.90;;;;;;6211605;23;20416;-71
2022/01/03 16:40:09;;;;;;;10.70;10.10;;;12.30;99.90;;;;;;6211186;23;20479;-71
2022/01/03 16:42:36;;;;;;;11.17;10.57;;;12.40;99.90;;;;;;6211701;23;20396;-71
2022/01/03 16:45:03;;;;;;;11.30;10.80;;;12.30;99.90;;;;;;6211252;23;20408;-72
2022/01/03 16:47:32;;;;;;;10.50;10.00;;;12.20;99.90;;;;;;6211133;23;20486;-72
2022/01/03 16:50:01;;;;;;;10.03;9.63;;;12.20;99.90;;;;;;6211291;23;20407;-72
2022/01/03 16:52:27;;;;;;;9.93;9.23;;;12.30;99.90;;;;;;6211264;23;20497;-72
2022/01/03 16:54:54;;;;;;;10.47;9.87;;;12.20;99.90;;;;;;6211100;23;20409;-71
2022/01/03 16:57:22;;;;;;;10.63;10.13;;;12.20;99.90;;;;;;6211180;23;20755;-73
2022/01/03 16:59:48;;;;;;;10.60;10.00;;;12.20;99.90;;;;;;6211179;23;20924;-72
2022/01/03 17:02:15;;;;;;;11.23;10.30;;;12.20;99.90;;;;;;6211251;23;20416;-73
2022/01/03 17:04:42;;;;;;;10.73;10.13;;;12.20;99.90;;;;;;6212051;23;20420;-72
2022/01/03 17:07:10;;;;;;;10.77;10.37;;;12.10;99.90;;;;;;6213328;23;20413;-72
2022/01/03 17:09:38;;;;;;;9.43;9.03;;;12.10;99.90;;;;;;6213362;23;20522;-72
2022/01/03 17:12:06;;;;;;;10.53;9.93;;;12.10;99.90;;;;;;6212987;23;20411;-72
2022/01/03 17:14:33;;;;;;;11.00;10.37;;;12.10;99.90;;;;;;6213329;23;20427;-71
2022/01/03 17:16:59;;;;;;;10.60;9.90;;;12.10;99.90;;;;;;6213160;23;20412;-73
2022/01/03 17:19:26;;;;;;;9.60;9.20;;;12.10;99.90;;;;;;6213603;23;20444;-71
2022/01/03 17:21:52;;;;;;;10.73;10.23;;;12.20;99.90;;;;;;6213468;23;20409;-74
2022/01/03 17:24:20;;;;;;;11.00;10.60;;;12.10;99.90;;;;;;6213295;23;20465;-73
2022/01/03 17:26:47;;;;;;;13.93;10.60;;;12.10;99.90;;;;;;6212934;23;20413;-73
2022/01/03 17:29:14;;;;;;;12.03;11.10;;;12.20;99.90;;;;;;6213074;23;20419;-72
2022/01/03 17:31:41;;;;;;;11.17;10.40;;;12.20;99.90;;;;;;6213331;23;20432;-72
2022/01/03 17:34:07;;;;;;;10.47;10.00;;;12.30;99.90;;;;;;6213298;23;20795;-72
2022/01/03 17:36:36;;;;;;;11.20;10.50;;;12.20;99.90;;;;;;6212650;23;20420;-73
2022/01/03 17:39:05;;;;;;;10.57;9.97;;;12.20;99.90;;;;;;6213095;23;20439;-72
2022/01/03 17:41:41;;;;;;;11.23;10.67;;;12.20;99.90;;;;;;6210283;23;20411;-71
2022/01/03 17:44:08;;;;;;;11.20;10.50;;;12.10;99.90;;;;;;6213214;23;20515;-72
2022/01/03 17:46:35;;;;;;;11.20;10.60;;;12.10;99.90;;;;;;6213392;23;20747;-72
2022/01/03 17:49:04;;;;;;;10.70;10.30;;;12.10;99.90;;;;;;6212394;23;20413;-72
2022/01/03 17:51:30;;;;;;;10.27;9.87;;;12.20;99.90;;;;;;6212994;23;20440;-72
2022/01/03 17:53:57;;;;;;;10.17;9.77;;;12.10;99.90;;;;;;6212849;23;20463;-72
2022/01/03 17:56:25;;;;;;;10.17;9.57;;;12.10;99.90;;;;;;6211893;23;20436;-72
2022/01/03 17:58:53;;;;;;;11.23;10.50;;;12.00;99.90;;;;;;6212616;23;20454;-71
2022/01/03 18:01:20;;;;;;;11.03;10.30;;;12.00;99.90;;;;;;6213046;23;20412;-72
2022/01/03 18:03:47;;;;;;;10.97;10.10;;;12.00;99.90;;;;;;6212924;23;20444;-74
2022/01/03 18:06:14;;;;;;;11.53;10.80;;;11.90;99.90;;;;;;6212920;23;20462;-74
2022/01/03 18:08:41;;;;;;;12.33;11.47;;;11.90;99.90;;;;;;6212893;23;20412;-71
2022/01/03 18:11:11;;;;;;;10.60;10.00;;;11.90;99.90;;;;;;6212878;23;20412;-74
2022/01/03 18:13:38;;;;;;;10.67;10.20;;;11.80;99.90;;;;;;6212893;23;20434;-75
2022/01/03 18:16:07;;;;;;;10.63;10.00;;;11.90;99.90;;;;;;6212805;23;20416;-72
2022/01/03 18:18:34;;;;;;;11.50;10.63;;;11.80;99.90;;;;;;6212424;23;20463;-74
2022/01/03 18:21:01;;;;;;;10.80;10.17;;;11.80;99.90;;;;;;6212918;23;20416;-74
2022/01/03 18:23:28;;;;;;;10.57;9.80;;;11.80;99.90;;;;;;6212540;23;20416;-74
2022/01/03 18:25:55;;;;;;;10.40;9.90;;;11.70;99.90;;;;;;6213125;23;20408;-71
2022/01/03 18:28:22;;;;;;;11.70;10.60;;;11.80;99.90;;;;;;6213015;23;20416;-73
2022/01/03 18:30:49;;;;;;;10.80;10.20;;;11.80;99.90;;;;;;6213139;23;20408;-73
2022/01/03 18:33:17;;;;;;;10.37;9.97;;;11.80;99.90;;;;;;6213260;23;20730;-73
2022/01/03 18:35:44;;;;;;;10.87;10.13;;;11.80;99.90;;;;;;6212364;23;20408;-74
2022/01/03 18:38:12;;;;;;;10.43;9.83;;;11.90;99.90;;;;;;6212818;23;20413;-74
2022/01/03 18:40:39;;;;;;;9.90;9.37;;;11.90;99.90;;;;;;6212546;23;20608;-73
2022/01/03 18:43:06;;;;;;;10.47;9.97;;;12.00;99.90;;;;;;6212665;23;20408;-73
2022/01/03 18:45:34;;;;;;;10.77;10.07;;;12.00;99.90;;;;;;6212283;23;20416;-73
2022/01/03 18:48:01;;;;;;;10.50;9.80;;;12.00;99.90;;;;;;6212623;23;20778;-73
2022/01/03 18:50:29;;;;;;;9.50;9.10;;;12.00;99.90;;;;;;6212364;23;20459;-73
2022/01/03 18:52:56;;;;;;;9.93;9.37;;;12.00;99.90;;;;;;6212689;23;20420;-74
2022/01/03 18:55:23;;;;;;;10.53;9.93;;;12.00;99.90;;;;;;6212582;23;20405;-73
2022/01/03 18:57:49;;;;;;;10.17;9.70;;;11.90;99.90;;;;;;6212053;23;20818;-73
2022/01/03 19:00:17;;;;;;;11.20;10.23;;;11.80;99.90;;;;;;6212370;23;20444;-74
2022/01/03 19:02:43;;;;;;;10.63;9.93;;;11.80;99.90;;;;;;6211917;23;20405;-74
2022/01/03 19:05:11;;;;;;;10.47;9.83;;;11.80;99.90;;;;;;6212613;23;20458;-73
2022/01/03 19:07:39;;;;;;;11.00;10.30;;;11.70;99.90;;;;;;6212439;23;20456;-75
2022/01/03 19:10:07;;;;;;;10.70;9.93;;;11.60;99.90;;;;;;6212168;23;20407;-72
2022/01/03 19:12:34;;;;;;;11.40;10.73;;;11.60;99.90;;;;;;6211966;23;20407;-73
2022/01/03 19:15:04;;;;;;;9.90;9.40;;;11.60;99.90;;;;;;6212283;23;20416;-74
2022/01/03 19:17:32;;;;;;;10.30;9.70;;;11.60;99.90;;;;;;6211959;23;20474;-73
2022/01/03 19:19:59;;;;;;;10.90;10.20;;;11.60;99.90;;;;;;6212134;23;20498;-75
2022/01/03 19:22:26;;;;;;;12.17;11.10;;;11.50;99.90;;;;;;6212113;23;20419;-73